KMWC/MWC METAR and TAF weather

Enter ICAO airport designator
Station Type Date Time Source
KMWC METAR 2022/01/26 07:55 UTC NOAA

KMWC 260755Z AUTO 29007KT 10SM CLR M21/M27 A3043 RMK AO2


Station Type Date Time Source
KMWC Decoded METAR 2022/01/26 07:55 UTC NOAA

Milwaukee / Timmerman, WI, United States (KMWC) 43-07N 088-02W
Jan 26, 2022 - 02:55 AM EST / 2022.01.26 0755 UTC
Wind: from the WNW (290 degrees) at 8 MPH (7 KT):0
Visibility: 10 mile(s):0
Sky conditions: clear
Temperature: -5 F (-21 C)
Windchill: -20 F (-29 C):2
Dew Point: -16 F (-27 C)
Relative Humidity: 58%
Pressure (altimeter): 30.43 in. Hg (1030 hPa)
ob: KMWC 260755Z AUTO 29007KT 10SM CLR M21/M27 A3043 RMK AO2
cycle: 8

Station Type Date Time Source
KMWC TAF UTC NOAA

Error!

Example: see airport list